Time;durP1;ratioP1;P1;durP2;ratioP2;P2;SDS_P1;SDS_P2;PMS_P1;PMS_P2;Temp;Humidity;BMP_temperature;BMP_pressure;BME280_temperature;BME280_humidity;BME280_pressure;Samples;Min_cycle;Max_cycle;Signal;HPM_P1;HPM_P2
2023/12/05 00:02:13;;;;;;;19.55;11.63;;;;;;;;;;5084098;28;20258;-70
2023/12/05 00:04:39;;;;;;;19.75;11.40;;;;;;;;;;5092293;28;20486;-70
2023/12/05 00:07:05;;;;;;;21.98;11.25;;;;;;;;;;5090289;28;20032;-71
2023/12/05 00:09:31;;;;;;;20.85;12.23;;;;;;;;;;5093332;28;20521;-71
2023/12/05 00:11:57;;;;;;;20.60;12.65;;;;;;;;;;5090894;28;20413;-71
2023/12/05 00:14:23;;;;;;;17.63;11.23;;;;;;;;;;5084877;28;20055;-71
2023/12/05 00:16:49;;;;;;;21.38;11.90;;;;;;;;;;5092513;28;20119;-71
2023/12/05 00:19:15;;;;;;;22.67;12.85;;;;;;;;;;5093188;28;20127;-71
2023/12/05 00:21:41;;;;;;;23.38;11.93;;;;;;;;;;5089860;28;20043;-71
2023/12/05 00:24:07;;;;;;;20.42;11.85;;;;;;;;;;5086232;28;20422;-70
2023/12/05 00:26:34;;;;;;;19.33;11.60;;;;;;;;;;5073102;28;20045;-70
2023/12/05 00:29:00;;;;;;;20.55;11.88;;;;;;;;;;5086543;28;20048;-70
2023/12/05 00:31:26;;;;;;;21.50;12.48;;;;;;;;;;5087830;28;20398;-70
2023/12/05 00:33:52;;;;;;;23.23;12.88;;;;;;;;;;5088364;28;20044;-70
2023/12/05 00:36:18;;;;;;;22.08;12.70;;;;;;;;;;5092730;28;20028;-70
2023/12/05 00:38:44;;;;;;;22.50;12.95;;;;;;;;;;5092301;28;20105;-71
2023/12/05 00:41:10;;;;;;;21.98;13.30;;;;;;;;;;5089152;28;20505;-71
2023/12/05 00:43:36;;;;;;;21.08;12.60;;;;;;;;;;5084772;28;20032;-71
2023/12/05 00:46:02;;;;;;;22.92;13.80;;;;;;;;;;5090092;28;20036;-71
2023/12/05 00:48:28;;;;;;;24.02;13.68;;;;;;;;;;5079361;28;20050;-70
2023/12/05 00:50:54;;;;;;;21.85;13.27;;;;;;;;;;5081734;28;20112;-71
2023/12/05 00:53:20;;;;;;;19.75;11.48;;;;;;;;;;5086898;28;20054;-71
2023/12/05 00:55:46;;;;;;;23.50;13.60;;;;;;;;;;5083531;28;20119;-70
2023/12/05 00:58:12;;;;;;;19.73;12.43;;;;;;;;;;5094948;22;20048;-72
2023/12/05 01:00:38;;;;;;;22.48;13.45;;;;;;;;;;5062077;28;20470;-72
2023/12/05 01:03:04;;;;;;;21.95;12.32;;;;;;;;;;5066996;28;20127;-72
2023/12/05 01:05:30;;;;;;;23.73;13.20;;;;;;;;;;5063848;28;20101;-72
2023/12/05 01:07:56;;;;;;;24.00;13.43;;;;;;;;;;5061631;28;20036;-72
2023/12/05 01:10:22;;;;;;;23.70;12.60;;;;;;;;;;5050169;28;20032;-72
2023/12/05 01:12:48;;;;;;;21.30;12.80;;;;;;;;;;5051805;28;20041;-72
2023/12/05 01:15:14;;;;;;;25.00;14.40;;;;;;;;;;5052332;28;20041;-72
2023/12/05 01:17:40;;;;;;;24.63;14.65;;;;;;;;;;5052587;28;20398;-72
2023/12/05 01:20:11;;;;;;;24.92;14.18;;;;;;;;;;5051192;28;20048;-72
2023/12/05 01:22:38;;;;;;;22.83;13.38;;;;;;;;;;5052117;28;20041;-72
2023/12/05 01:25:05;;;;;;;23.65;13.57;;;;;;;;;;5052065;28;20045;-72
2023/12/05 01:27:31;;;;;;;20.90;13.23;;;;;;;;;;5053232;28;20175;-72
2023/12/05 01:29:57;;;;;;;22.85;13.88;;;;;;;;;;5051327;28;20124;-72
2023/12/05 01:32:24;;;;;;;22.95;13.75;;;;;;;;;;5051865;28;20041;-72
2023/12/05 01:34:49;;;;;;;21.90;14.30;;;;;;;;;;5050170;28;20037;-72
2023/12/05 01:37:15;;;;;;;24.98;14.13;;;;;;;;;;5049648;28;20246;-72
2023/12/05 01:39:41;;;;;;;24.33;13.68;;;;;;;;;;5050175;28;20033;-72
2023/12/05 01:42:07;;;;;;;24.55;13.90;;;;;;;;;;5051353;28;20498;-72
2023/12/05 01:44:33;;;;;;;26.50;14.32;;;;;;;;;;5050800;28;20087;-72
2023/12/05 01:47:00;;;;;;;23.92;14.20;;;;;;;;;;5050484;28;20037;-72
2023/12/05 01:49:26;;;;;;;24.73;14.25;;;;;;;;;;5052465;28;20083;-72
2023/12/05 01:51:52;;;;;;;24.50;14.52;;;;;;;;;;5051365;28;20076;-72
2023/12/05 01:54:19;;;;;;;21.88;13.32;;;;;;;;;;5049879;28;20049;-72
2023/12/05 01:56:45;;;;;;;23.30;13.85;;;;;;;;;;5051303;28;20041;-72
2023/12/05 01:59:11;;;;;;;24.65;13.82;;;;;;;;;;5050790;28;20032;-72
2023/12/05 02:01:37;;;;;;;24.83;15.50;;;;;;;;;;5049873;28;20033;-72
2023/12/05 02:04:04;;;;;;;25.05;15.95;;;;;;;;;;5049870;28;20037;-72
2023/12/05 02:06:30;;;;;;;25.67;16.13;;;;;;;;;;5051585;28;20037;-72
2023/12/05 02:08:58;;;;;;;23.20;14.52;;;;;;;;;;5059744;28;20043;-72
2023/12/05 02:11:24;;;;;;;24.10;14.70;;;;;;;;;;5054502;28;20051;-72
2023/12/05 02:13:51;;;;;;;25.23;15.27;;;;;;;;;;5053874;28;20047;-72
2023/12/05 02:16:23;;;;;;;25.52;15.43;;;;;;;;;;5053861;28;20049;-72
2023/12/05 02:18:56;;;;;;;25.77;14.65;;;;;;;;;;5053937;28;20037;-72
2023/12/05 02:21:28;;;;;;;24.40;14.63;;;;;;;;;;5056521;28;20119;-72
2023/12/05 02:23:53;;;;;;;;;;;;;;;;;;5052730;28;20048;-72
2023/12/05 02:26:38;;;;;;;20.65;13.77;;;;;;;;;;5057559;28;19916;-72
2023/12/05 02:29:04;;;;;;;23.48;15.07;;;;;;;;;;5053780;28;20080;-72
2023/12/05 02:31:30;;;;;;;23.55;14.63;;;;;;;;;;5054543;28;20044;-72
2023/12/05 02:33:56;;;;;;;22.77;14.52;;;;;;;;;;5054761;28;20052;-72
2023/12/05 02:36:31;;;;;;;22.25;12.60;;;;;;;;;;5054360;28;20065;-72
2023/12/05 02:39:03;;;;;;;22.70;13.80;;;;;;;;;;5054151;28;20037;-72
2023/12/05 02:41:30;;;;;;;24.08;14.30;;;;;;;;;;5054024;28;20045;-72
2023/12/05 02:43:59;;;;;;;23.90;14.63;;;;;;;;;;5053349;28;20045;-72
2023/12/05 02:46:25;;;;;;;23.20;14.15;;;;;;;;;;5050549;28;20140;-72
2023/12/05 02:48:52;;;;;;;24.42;15.00;;;;;;;;;;5054850;28;20519;-72
2023/12/05 02:51:18;;;;;;;25.30;15.57;;;;;;;;;;5051574;28;20090;-72
2023/12/05 02:53:44;;;;;;;24.08;15.02;;;;;;;;;;5054635;28;20055;-72
2023/12/05 02:56:10;;;;;;;22.42;14.57;;;;;;;;;;5056412;28;20045;-72
2023/12/05 02:58:36;;;;;;;24.23;14.75;;;;;;;;;;5054628;28;20044;-72
2023/12/05 03:01:03;;;;;;;25.55;15.20;;;;;;;;;;5050733;28;20091;-72
2023/12/05 03:03:29;;;;;;;22.17;14.02;;;;;;;;;;5054550;28;20384;-72
2023/12/05 03:05:55;;;;;;;22.90;14.63;;;;;;;;;;5052128;28;20449;-72
2023/12/05 03:08:21;;;;;;;25.00;14.68;;;;;;;;;;5054481;28;20033;-72
2023/12/05 03:10:47;;;;;;;24.05;13.90;;;;;;;;;;5050669;28;20531;-72
2023/12/05 03:13:13;;;;;;;22.90;14.75;;;;;;;;;;5048743;28;20461;-72
2023/12/05 03:15:39;;;;;;;24.75;15.07;;;;;;;;;;5054170;28;20080;-72
2023/12/05 03:18:05;;;;;;;24.77;16.02;;;;;;;;;;5053770;28;20445;-72
2023/12/05 03:20:31;;;;;;;26.77;16.25;;;;;;;;;;5053495;28;20048;-72
2023/12/05 03:22:57;;;;;;;24.98;15.05;;;;;;;;;;5053867;28;20412;-72
2023/12/05 03:25:23;;;;;;;24.50;16.02;;;;;;;;;;5051619;28;20041;-72
2023/12/05 03:27:49;;;;;;;28.42;15.00;;;;;;;;;;5050642;28;20580;-72
2023/12/05 03:30:15;;;;;;;24.40;15.40;;;;;;;;;;5053127;28;20049;-72
2023/12/05 03:32:40;;;;;;;26.42;15.20;;;;;;;;;;5053721;28;20037;-72
2023/12/05 03:35:07;;;;;;;25.80;15.43;;;;;;;;;;5053303;28;20044;-72
2023/12/05 03:37:33;;;;;;;26.13;15.85;;;;;;;;;;5053955;28;20179;-72
2023/12/05 03:39:58;;;;;;;26.30;15.50;;;;;;;;;;5053653;28;20525;-72
2023/12/05 03:42:24;;;;;;;27.33;16.08;;;;;;;;;;5054211;28;20395;-72
2023/12/05 03:44:50;;;;;;;26.38;15.55;;;;;;;;;;5051358;28;20040;-72
2023/12/05 03:47:16;;;;;;;27.92;15.57;;;;;;;;;;5053422;28;20045;-72
2023/12/05 03:49:42;;;;;;;26.95;16.15;;;;;;;;;;5053720;28;20067;-72
2023/12/05 03:52:08;;;;;;;27.13;16.13;;;;;;;;;;5052901;28;20083;-72
2023/12/05 03:54:34;;;;;;;26.30;15.75;;;;;;;;;;5053712;28;20033;-72
2023/12/05 03:57:00;;;;;;;28.08;16.58;;;;;;;;;;5052942;28;20335;-72
2023/12/05 03:59:26;;;;;;;27.10;16.70;;;;;;;;;;5052494;28;20045;-72
2023/12/05 04:01:52;;;;;;;25.33;15.52;;;;;;;;;;5053317;28;20037;-72
2023/12/05 04:04:18;;;;;;;28.27;16.20;;;;;;;;;;5053396;28;20041;-71
2023/12/05 04:06:44;;;;;;;30.73;17.42;;;;;;;;;;5052485;28;20079;-71
2023/12/05 04:09:10;;;;;;;30.85;16.98;;;;;;;;;;5049290;28;20044;-71
2023/12/05 04:11:37;;;;;;;30.35;17.67;;;;;;;;;;5047837;28;20048;-71
2023/12/05 04:14:03;;;;;;;30.35;17.38;;;;;;;;;;5053078;28;20041;-71
2023/12/05 04:16:29;;;;;;;28.23;15.95;;;;;;;;;;5052000;28;20202;-71
2023/12/05 04:18:55;;;;;;;26.95;16.73;;;;;;;;;;5053110;28;20036;-71
2023/12/05 04:21:21;;;;;;;31.40;17.05;;;;;;;;;;5047653;28;20569;-71
2023/12/05 04:23:47;;;;;;;29.52;16.58;;;;;;;;;;5052310;28;20041;-71
2023/12/05 04:26:19;;;;;;;31.48;17.58;;;;;;;;;;5052040;28;20052;-71
2023/12/05 04:28:46;;;;;;;27.83;16.27;;;;;;;;;;5053125;28;20037;-71
2023/12/05 04:31:12;;;;;;;34.60;17.77;;;;;;;;;;5055675;28;20041;-71
2023/12/05 04:33:41;;;;;;;30.75;17.23;;;;;;;;;;5052294;28;20045;-71
2023/12/05 04:36:08;;;;;;;28.52;17.35;;;;;;;;;;5052306;28;20045;-71
2023/12/05 04:38:35;;;;;;;32.80;17.52;;;;;;;;;;5052247;28;20043;-71
2023/12/05 04:41:01;;;;;;;28.38;17.40;;;;;;;;;;5051138;28;20113;-71
2023/12/05 04:43:27;;;;;;;31.70;17.83;;;;;;;;;;5052544;28;20048;-71
2023/12/05 04:45:53;;;;;;;30.63;16.63;;;;;;;;;;5051805;28;20529;-71
2023/12/05 04:48:19;;;;;;;33.17;18.33;;;;;;;;;;5052553;28;20045;-71
2023/12/05 04:50:45;;;;;;;32.72;19.15;;;;;;;;;;5053885;28;20115;-71
2023/12/05 04:53:11;;;;;;;29.77;17.15;;;;;;;;;;5052098;28;20041;-71
2023/12/05 04:55:37;;;;;;;34.28;19.35;;;;;;;;;;5052114;28;20040;-71
2023/12/05 04:58:03;;;;;;;32.25;17.77;;;;;;;;;;5052228;28;20045;-71
2023/12/05 05:00:29;;;;;;;29.77;17.33;;;;;;;;;;5050134;28;20098;-71
2023/12/05 05:02:55;;;;;;;32.13;18.27;;;;;;;;;;5051891;28;20040;-71
2023/12/05 05:05:21;;;;;;;32.92;19.38;;;;;;;;;;5050300;28;20041;-71
2023/12/05 05:07:47;;;;;;;34.42;19.05;;;;;;;;;;5050193;28;20044;-71
2023/12/05 05:10:13;;;;;;;33.45;19.45;;;;;;;;;;5051530;28;20045;-71
2023/12/05 05:12:39;;;;;;;33.95;18.08;;;;;;;;;;5047977;28;20128;-71
2023/12/05 05:15:06;;;;;;;35.58;19.13;;;;;;;;;;5051738;28;20156;-71
2023/12/05 05:17:32;;;;;;;34.85;19.70;;;;;;;;;;5051785;28;20076;-71
2023/12/05 05:19:58;;;;;;;36.65;20.08;;;;;;;;;;5052981;28;20494;-71
2023/12/05 05:22:24;;;;;;;36.00;18.85;;;;;;;;;;5043189;28;20048;-71
2023/12/05 05:24:50;;;;;;;35.95;19.83;;;;;;;;;;5049055;28;20128;-71
2023/12/05 05:27:16;;;;;;;34.95;18.73;;;;;;;;;;5051299;28;20040;-71
2023/12/05 05:29:42;;;;;;;33.38;19.17;;;;;;;;;;5049150;28;20040;-71
2023/12/05 05:32:08;;;;;;;36.20;19.30;;;;;;;;;;5050224;28;20052;-71
2023/12/05 05:34:34;;;;;;;35.03;19.50;;;;;;;;;;5057395;28;20055;-71
2023/12/05 05:37:00;;;;;;;35.50;17.60;;;;;;;;;;5058847;28;20033;-71
2023/12/05 05:39:26;;;;;;;33.80;19.38;;;;;;;;;;5061509;28;20040;-71
2023/12/05 05:41:52;;;;;;;34.53;20.15;;;;;;;;;;5053243;28;20067;-71
2023/12/05 05:44:18;;;;;;;35.00;20.13;;;;;;;;;;5053262;28;20090;-71
2023/12/05 05:46:44;;;;;;;36.92;20.17;;;;;;;;;;5056586;28;20082;-71
2023/12/05 05:49:10;;;;;;;34.55;18.67;;;;;;;;;;5057077;28;20079;-71
2023/12/05 05:51:36;;;;;;;35.60;19.83;;;;;;;;;;5062294;28;20170;-71
2023/12/05 05:54:02;;;;;;;36.08;19.80;;;;;;;;;;5056634;28;20616;-71
2023/12/05 05:56:29;;;;;;;36.38;20.33;;;;;;;;;;5064543;28;20044;-71
2023/12/05 05:58:55;;;;;;;35.50;18.35;;;;;;;;;;5055299;28;20040;-71
2023/12/05 06:01:21;;;;;;;34.65;18.92;;;;;;;;;;5062533;28;20564;-71
2023/12/05 06:03:47;;;;;;;34.90;19.35;;;;;;;;;;5061582;28;20114;-71
2023/12/05 06:06:13;;;;;;;34.08;19.77;;;;;;;;;;5054040;28;20037;-71
2023/12/05 06:08:39;;;;;;;37.63;20.05;;;;;;;;;;5060639;28;20459;-71
2023/12/05 06:11:05;;;;;;;36.05;20.33;;;;;;;;;;5061871;28;20124;-71
2023/12/05 06:13:31;;;;;;;39.05;20.00;;;;;;;;;;5057956;28;20494;-71
2023/12/05 06:15:57;;;;;;;37.70;19.75;;;;;;;;;;5064076;28;20043;-71
2023/12/05 06:18:23;;;;;;;38.08;20.65;;;;;;;;;;5062510;28;20665;-71
2023/12/05 06:20:51;;;;;;;42.58;22.50;;;;;;;;;;5061541;28;20075;-71
2023/12/05 06:23:17;;;;;;;37.47;20.05;;;;;;;;;;5062015;28;20460;-71
2023/12/05 06:25:43;;;;;;;37.42;19.75;;;;;;;;;;5060981;28;20549;-71
2023/12/05 06:28:09;;;;;;;40.33;20.02;;;;;;;;;;5060709;28;20037;-71
2023/12/05 06:30:35;;;;;;;38.20;20.40;;;;;;;;;;5063475;28;20072;-71
2023/12/05 06:33:01;;;;;;;40.78;20.23;;;;;;;;;;5062607;28;20078;-71
2023/12/05 06:35:27;;;;;;;41.33;21.48;;;;;;;;;;5062564;28;20045;-71
2023/12/05 06:37:53;;;;;;;39.60;20.23;;;;;;;;;;5056744;28;20059;-71
2023/12/05 06:40:19;;;;;;;38.90;21.40;;;;;;;;;;5056868;28;20037;-71
2023/12/05 06:42:46;;;;;;;40.20;21.58;;;;;;;;;;5048971;28;20079;-71
2023/12/05 06:45:12;;;;;;;40.83;21.00;;;;;;;;;;5050591;28;20033;-71
2023/12/05 06:47:38;;;;;;;38.72;20.10;;;;;;;;;;5049662;28;20071;-71
2023/12/05 06:50:10;;;;;;;42.33;21.88;;;;;;;;;;5049806;28;20064;-71
2023/12/05 06:52:36;;;;;;;40.75;20.67;;;;;;;;;;5047388;28;20037;-71
2023/12/05 06:55:02;;;;;;;38.65;20.25;;;;;;;;;;5051828;28;20029;-71
2023/12/05 06:57:28;;;;;;;39.97;21.92;;;;;;;;;;5074512;22;20033;-70
2023/12/05 06:59:54;;;;;;;40.67;20.95;;;;;;;;;;5071962;28;20541;-70
2023/12/05 07:02:20;;;;;;;41.92;21.15;;;;;;;;;;5070791;28;20444;-70
2023/12/05 07:04:46;;;;;;;40.95;20.83;;;;;;;;;;5074184;28;20036;-70
2023/12/05 07:07:12;;;;;;;42.75;21.63;;;;;;;;;;5071225;28;20036;-70
2023/12/05 07:09:38;;;;;;;38.70;19.83;;;;;;;;;;5069394;28;20414;-69
2023/12/05 07:12:04;;;;;;;44.17;21.27;;;;;;;;;;5070138;28;20044;-70
2023/12/05 07:14:30;;;;;;;40.30;20.20;;;;;;;;;;5068319;28;20117;-69
2023/12/05 07:16:56;;;;;;;42.97;19.55;;;;;;;;;;5072942;28;20060;-70
2023/12/05 07:19:22;;;;;;;39.60;20.58;;;;;;;;;;5071722;28;20051;-70
2023/12/05 07:21:48;;;;;;;39.65;20.83;;;;;;;;;;5073250;28;20037;-69
2023/12/05 07:24:14;;;;;;;40.47;21.08;;;;;;;;;;5073565;28;20029;-70
2023/12/05 07:26:40;;;;;;;39.78;20.17;;;;;;;;;;5072849;28;20036;-70
2023/12/05 07:29:06;;;;;;;38.95;21.50;;;;;;;;;;5073308;28;20064;-69
2023/12/05 07:31:32;;;;;;;37.65;20.55;;;;;;;;;;5072136;28;20450;-70
2023/12/05 07:33:58;;;;;;;39.92;20.15;;;;;;;;;;5070036;28;20114;-70
2023/12/05 07:36:25;;;;;;;41.92;20.15;;;;;;;;;;5072822;28;20071;-70
2023/12/05 07:38:51;;;;;;;38.97;20.98;;;;;;;;;;5072152;28;20046;-70
2023/12/05 07:41:20;;;;;;;40.50;20.52;;;;;;;;;;5071996;28;20037;-70
2023/12/05 07:43:46;;;;;;;39.33;20.50;;;;;;;;;;5072961;28;20551;-70
2023/12/05 07:46:13;;;;;;;37.92;20.35;;;;;;;;;;5073231;28;20081;-70
2023/12/05 07:48:39;;;;;;;38.60;20.48;;;;;;;;;;5068503;28;20040;-70
2023/12/05 07:51:05;;;;;;;39.45;20.67;;;;;;;;;;5072549;28;20074;-70
2023/12/05 07:53:31;;;;;;;39.90;20.42;;;;;;;;;;5072358;28;20545;-70
2023/12/05 07:55:57;;;;;;;40.85;21.10;;;;;;;;;;5073462;28;20033;-70
2023/12/05 07:58:24;;;;;;;40.45;20.70;;;;;;;;;;5071911;28;20048;-70
2023/12/05 08:00:50;;;;;;;36.92;19.50;;;;;;;;;;5072915;28;20447;-70
2023/12/05 08:03:16;;;;;;;40.08;20.65;;;;;;;;;;5072499;28;20479;-70
2023/12/05 08:05:42;;;;;;;40.45;19.80;;;;;;;;;;5072536;28;20040;-70
2023/12/05 08:08:08;;;;;;;39.17;20.00;;;;;;;;;;5069709;28;20149;-69
2023/12/05 08:10:34;;;;;;;41.05;20.60;;;;;;;;;;5069011;28;20127;-71
2023/12/05 08:13:00;;;;;;;37.20;20.33;;;;;;;;;;5072783;28;20755;-70
2023/12/05 08:15:26;;;;;;;38.30;20.08;;;;;;;;;;5072250;28;20036;-70
2023/12/05 08:17:52;;;;;;;40.78;19.98;;;;;;;;;;5067095;28;20048;-70
2023/12/05 08:20:18;;;;;;;39.88;19.80;;;;;;;;;;5069048;28;20483;-70
2023/12/05 08:22:44;;;;;;;40.38;19.20;;;;;;;;;;5071294;28;20071;-70
2023/12/05 08:25:11;;;;;;;38.83;20.63;;;;;;;;;;5071196;28;20060;-70
2023/12/05 08:27:37;;;;;;;37.97;19.80;;;;;;;;;;5072585;28;20036;-70
2023/12/05 08:30:03;;;;;;;40.80;20.63;;;;;;;;;;5072701;28;20033;-70
2023/12/05 08:32:30;;;;;;;38.53;19.60;;;;;;;;;;5073152;28;20052;-70
2023/12/05 08:34:56;;;;;;;35.72;19.42;;;;;;;;;;5073133;28;20037;-70
2023/12/05 08:37:23;;;;;;;37.95;20.05;;;;;;;;;;5072047;28;20448;-70
2023/12/05 08:39:49;;;;;;;38.28;19.92;;;;;;;;;;5072355;28;20043;-70
2023/12/05 08:42:15;;;;;;;37.53;19.60;;;;;;;;;;5070590;28;20153;-70
2023/12/05 08:44:42;;;;;;;42.22;20.67;;;;;;;;;;5072135;28;20029;-70
2023/12/05 08:47:08;;;;;;;40.00;20.25;;;;;;;;;;5068988;28;20063;-70
2023/12/05 08:49:34;;;;;;;37.17;19.23;;;;;;;;;;5072438;28;20097;-70
2023/12/05 08:52:00;;;;;;;39.95;19.83;;;;;;;;;;5072768;28;20041;-70
2023/12/05 08:54:26;;;;;;;39.80;21.10;;;;;;;;;;5071995;28;20047;-70
2023/12/05 08:56:52;;;;;;;40.53;20.45;;;;;;;;;;5069514;28;20402;-70
2023/12/05 08:59:18;;;;;;;43.92;20.17;;;;;;;;;;5069451;28;20041;-70
2023/12/05 09:01:47;;;;;;;39.00;21.98;;;;;;;;;;5072463;28;20036;-69
2023/12/05 09:04:13;;;;;;;37.22;19.30;;;;;;;;;;5070936;28;20049;-69
2023/12/05 09:06:39;;;;;;;39.47;20.23;;;;;;;;;;5071022;28;20047;-69
2023/12/05 09:09:05;;;;;;;40.10;21.13;;;;;;;;;;5070348;28;20123;-70
2023/12/05 09:11:31;;;;;;;37.03;19.70;;;;;;;;;;5071851;28;20078;-70
2023/12/05 09:13:58;;;;;;;39.85;20.75;;;;;;;;;;5068140;28;20075;-68
2023/12/05 09:16:24;;;;;;;39.75;20.63;;;;;;;;;;5066378;28;20041;-69
2023/12/05 09:18:51;;;;;;;36.88;20.48;;;;;;;;;;5068532;28;20056;-69
2023/12/05 09:21:17;;;;;;;40.75;21.60;;;;;;;;;;5067787;28;20037;-70
2023/12/05 09:23:43;;;;;;;38.97;21.13;;;;;;;;;;5067797;28;20540;-70
2023/12/05 09:26:09;;;;;;;40.67;22.05;;;;;;;;;;5069634;28;20045;-69
2023/12/05 09:28:35;;;;;;;39.75;20.65;;;;;;;;;;5070225;28;20047;-69
2023/12/05 09:31:01;;;;;;;39.45;21.15;;;;;;;;;;5069782;28;20039;-70
2023/12/05 09:33:27;;;;;;;41.03;21.27;;;;;;;;;;5070745;28;20036;-69
2023/12/05 09:35:53;;;;;;;41.53;21.33;;;;;;;;;;5066820;28;20407;-70
2023/12/05 09:38:19;;;;;;;42.72;20.73;;;;;;;;;;5070663;28;20094;-70
2023/12/05 09:40:45;;;;;;;42.35;22.13;;;;;;;;;;5071071;28;20036;-69
2023/12/05 09:43:12;;;;;;;41.85;21.60;;;;;;;;;;5052875;28;20536;-69
2023/12/05 09:45:43;;;;;;;45.42;21.67;;;;;;;;;;5071066;28;20403;-69
2023/12/05 09:48:10;;;;;;;37.95;21.00;;;;;;;;;;5070050;28;20055;-69
2023/12/05 09:50:36;;;;;;;38.40;20.27;;;;;;;;;;5070163;28;20090;-69
2023/12/05 09:53:03;;;;;;;42.53;21.33;;;;;;;;;;5069843;28;20036;-70
2023/12/05 09:55:29;;;;;;;43.95;22.65;;;;;;;;;;5070677;28;20044;-70
2023/12/05 09:57:58;;;;;;;43.78;20.42;;;;;;;;;;5070487;28;20495;-70
2023/12/05 10:00:24;;;;;;;42.70;21.58;;;;;;;;;;5070952;28;20090;-70
2023/12/05 10:02:53;;;;;;;43.08;21.80;;;;;;;;;;5071037;28;20066;-70
2023/12/05 10:05:20;;;;;;;42.08;21.20;;;;;;;;;;5069614;28;20079;-70
2023/12/05 10:07:49;;;;;;;37.08;20.80;;;;;;;;;;5068643;28;20036;-69
2023/12/05 10:10:16;;;;;;;40.95;21.90;;;;;;;;;;5068674;28;20414;-69
2023/12/05 10:12:42;;;;;;;38.97;21.38;;;;;;;;;;5070833;28;20588;-69
2023/12/05 10:15:08;;;;;;;40.55;22.05;;;;;;;;;;5069292;28;20036;-69
2023/12/05 10:17:35;;;;;;;36.90;20.60;;;;;;;;;;5069743;28;20052;-70
2023/12/05 10:20:01;;;;;;;41.78;20.15;;;;;;;;;;5070483;28;20048;-70
2023/12/05 10:22:27;;;;;;;41.53;21.70;;;;;;;;;;5069313;28;20410;-70
2023/12/05 10:24:55;;;;;;;42.92;21.13;;;;;;;;;;5069870;28;20089;-70
2023/12/05 10:27:21;;;;;;;39.97;20.55;;;;;;;;;;5071273;28;20049;-70
2023/12/05 10:29:47;;;;;;;40.03;20.63;;;;;;;;;;5068723;28;20044;-70
2023/12/05 10:32:13;;;;;;;40.58;22.55;;;;;;;;;;5074588;28;20048;-70
2023/12/05 10:34:47;;;;;;;41.03;21.40;;;;;;;;;;5073300;28;20044;-69
2023/12/05 10:37:13;;;;;;;41.50;22.00;;;;;;;;;;5073607;28;20033;-69
2023/12/05 10:39:39;;;;;;;41.30;21.98;;;;;;;;;;5070696;28;20146;-69
2023/12/05 10:42:07;;;;;;;36.60;19.40;;;;;;;;;;5071684;28;20066;-69
2023/12/05 10:44:39;;;;;;;41.90;21.52;;;;;;;;;;5073313;28;20040;-69
2023/12/05 10:47:06;;;;;;;42.10;20.95;;;;;;;;;;5069247;28;20044;-70
2023/12/05 10:49:34;;;;;;;42.45;21.30;;;;;;;;;;5071228;28;20067;-69
2023/12/05 10:52:02;;;;;;;43.22;21.98;;;;;;;;;;5073683;28;20051;-70
2023/12/05 10:54:28;;;;;;;38.03;20.55;;;;;;;;;;5072599;28;20123;-70
2023/12/05 10:56:57;;;;;;;44.58;21.90;;;;;;;;;;5073614;28;20048;-70
2023/12/05 10:59:27;;;;;;;41.70;22.17;;;;;;;;;;5071892;28;20036;-69
2023/12/05 11:01:56;;;;;;;38.53;19.17;;;;;;;;;;5071385;28;20037;-70
2023/12/05 11:04:25;;;;;;;39.30;19.80;;;;;;;;;;5069801;28;20067;-70
2023/12/05 11:06:52;;;;;;;38.42;20.58;;;;;;;;;;5071492;28;20457;-70
2023/12/05 11:09:18;;;;;;;36.80;19.52;;;;;;;;;;5070523;28;20032;-70
2023/12/05 11:11:46;;;;;;;34.38;18.35;;;;;;;;;;5068792;28;20105;-70
2023/12/05 11:14:14;;;;;;;39.53;20.23;;;;;;;;;;5069961;28;20048;-70
2023/12/05 11:16:44;;;;;;;38.72;21.38;;;;;;;;;;5072704;28;20582;-70
2023/12/05 11:19:28;;;;;;;40.00;20.63;;;;;;;;;;5073570;28;20133;-70
2023/12/05 11:22:01;;;;;;;38.65;20.60;;;;;;;;;;5074203;28;20478;-70
2023/12/05 11:24:30;;;;;;;39.47;20.83;;;;;;;;;;5071878;28;20032;-70
2023/12/05 11:26:59;;;;;;;39.40;19.77;;;;;;;;;;5069595;28;20036;-70
2023/12/05 11:29:25;;;;;;;39.15;19.52;;;;;;;;;;5071660;28;20050;-70
2023/12/05 11:31:55;;;;;;;40.85;20.95;;;;;;;;;;5072548;28;20123;-70
2023/12/05 11:34:33;;;;;;;39.90;20.00;;;;;;;;;;5069988;28;20036;-69
2023/12/05 11:37:02;;;;;;;37.17;20.48;;;;;;;;;;5070643;28;20165;-70
2023/12/05 11:39:29;;;;;;;40.08;21.58;;;;;;;;;;5071147;28;20407;-70
2023/12/05 11:42:11;;;;;;;42.10;21.80;;;;;;;;;;5072765;28;20040;-70
2023/12/05 11:44:38;;;;;;;41.38;21.63;;;;;;;;;;5073664;28;20036;-70
2023/12/05 11:47:09;;;;;;;39.47;20.27;;;;;;;;;;5071580;28;20406;-70
2023/12/05 11:49:39;;;;;;;38.88;19.85;;;;;;;;;;5072961;28;20040;-70
2023/12/05 11:52:11;;;;;;;36.10;18.77;;;;;;;;;;5072217;28;20226;-70
2023/12/05 11:54:39;;;;;;;42.20;19.83;;;;;;;;;;5073285;28;20036;-70
2023/12/05 11:57:12;;;;;;;41.20;20.75;;;;;;;;;;5072264;28;20032;-69
2023/12/05 11:59:39;;;;;;;39.80;20.08;;;;;;;;;;5070615;28;20036;-69
2023/12/05 12:02:06;;;;;;;39.20;19.25;;;;;;;;;;5071701;28;20032;-69
2023/12/05 12:04:32;;;;;;;40.45;20.40;;;;;;;;;;5073905;28;20078;-69
2023/12/05 12:06:59;;;;;;;38.90;19.52;;;;;;;;;;5070497;28;20041;-69
2023/12/05 12:09:25;;;;;;;41.47;19.45;;;;;;;;;;5072084;28;20051;-69
2023/12/05 12:11:51;;;;;;;41.63;20.50;;;;;;;;;;5071507;28;20040;-69
2023/12/05 12:14:19;;;;;;;41.03;20.33;;;;;;;;;;5073413;28;20044;-70
2023/12/05 12:16:46;;;;;;;38.63;19.13;;;;;;;;;;5071140;28;20044;-70
2023/12/05 12:19:13;;;;;;;36.33;18.33;;;;;;;;;;5072355;28;20048;-69
2023/12/05 12:21:39;;;;;;;39.67;19.38;;;;;;;;;;5072875;28;20041;-69
2023/12/05 12:24:06;;;;;;;37.67;19.58;;;;;;;;;;5073138;28;20082;-69
2023/12/05 12:26:32;;;;;;;44.08;21.45;;;;;;;;;;5068406;28;20075;-70
2023/12/05 12:29:11;;;;;;;41.13;20.38;;;;;;;;;;5071031;28;20052;-70
2023/12/05 12:31:38;;;;;;;39.90;20.83;;;;;;;;;;5072340;28;20068;-70
2023/12/05 12:34:07;;;;;;;39.88;20.27;;;;;;;;;;5072865;28;20048;-70
2023/12/05 12:36:34;;;;;;;41.70;19.58;;;;;;;;;;5072589;28;20121;-70
2023/12/05 12:39:00;;;;;;;41.15;20.52;;;;;;;;;;5085493;28;20067;-70
2023/12/05 12:41:26;;;;;;;44.88;22.05;;;;;;;;;;5068986;28;20044;-70
2023/12/05 12:43:55;;;;;;;43.90;20.25;;;;;;;;;;5069718;28;20040;-70
2023/12/05 12:46:21;;;;;;;41.78;21.02;;;;;;;;;;5072538;28;20054;-69
2023/12/05 12:48:47;;;;;;;40.65;20.88;;;;;;;;;;5072473;28;20037;-69
2023/12/05 12:51:13;;;;;;;40.33;20.85;;;;;;;;;;5071723;28;20045;-69
2023/12/05 12:53:41;;;;;;;41.97;20.63;;;;;;;;;;5072037;28;20121;-69
2023/12/05 12:56:09;;;;;;;45.95;21.15;;;;;;;;;;5072098;28;20512;-69
2023/12/05 12:58:35;;;;;;;51.53;23.38;;;;;;;;;;5091759;22;20125;-70
2023/12/05 13:01:01;;;;;;;49.92;23.95;;;;;;;;;;5068521;28;20536;-70
2023/12/05 13:03:28;;;;;;;45.35;22.20;;;;;;;;;;5073938;28;20047;-70
2023/12/05 13:05:55;;;;;;;45.35;22.85;;;;;;;;;;5077579;28;20037;-70
2023/12/05 13:08:21;;;;;;;49.92;23.70;;;;;;;;;;5058145;28;20123;-70
2023/12/05 13:10:47;;;;;;;45.92;21.33;;;;;;;;;;5071128;28;20119;-70
2023/12/05 13:13:13;;;;;;;42.22;20.17;;;;;;;;;;5070132;28;20040;-71
2023/12/05 13:15:39;;;;;;;46.95;21.25;;;;;;;;;;5068775;28;20052;-71
2023/12/05 13:18:06;;;;;;;44.80;21.40;;;;;;;;;;5049228;28;20573;-71
2023/12/05 13:20:33;;;;;;;47.03;22.85;;;;;;;;;;5063662;28;20036;-70
2023/12/05 13:23:01;;;;;;;49.05;23.17;;;;;;;;;;5051581;28;20040;-70
2023/12/05 13:25:27;;;;;;;45.75;22.02;;;;;;;;;;5066681;28;20040;-71
2023/12/05 13:27:54;;;;;;;47.38;23.38;;;;;;;;;;5068969;28;20406;-70
2023/12/05 13:30:20;;;;;;;49.75;23.45;;;;;;;;;;5052877;28;20510;-70
2023/12/05 13:32:47;;;;;;;52.47;23.50;;;;;;;;;;5071647;28;20029;-71
2023/12/05 13:35:13;;;;;;;48.70;24.75;;;;;;;;;;5054035;28;20068;-70
2023/12/05 13:37:40;;;;;;;53.40;24.10;;;;;;;;;;5059877;28;20106;-70
2023/12/05 13:40:06;;;;;;;43.97;23.17;;;;;;;;;;5066276;28;20495;-70
2023/12/05 13:42:36;;;;;;;52.80;23.23;;;;;;;;;;5070628;28;20523;-70
2023/12/05 13:45:02;;;;;;;49.55;23.77;;;;;;;;;;5070799;28;20040;-70
2023/12/05 13:47:28;;;;;;;51.22;23.38;;;;;;;;;;5068176;28;20110;-70
2023/12/05 13:49:54;;;;;;;55.13;25.60;;;;;;;;;;5070586;28;20040;-71
2023/12/05 13:52:20;;;;;;;51.08;23.67;;;;;;;;;;5066970;28;20044;-71
2023/12/05 13:54:46;;;;;;;52.15;24.20;;;;;;;;;;5067978;28;20048;-71
2023/12/05 13:57:12;;;;;;;51.20;21.92;;;;;;;;;;5070507;28;20040;-71
2023/12/05 13:59:38;;;;;;;54.35;24.58;;;;;;;;;;5070593;28;20491;-71
2023/12/05 14:02:04;;;;;;;49.28;22.30;;;;;;;;;;5053059;28;20040;-71
2023/12/05 14:04:33;;;;;;;51.80;22.42;;;;;;;;;;5069620;28;20090;-71
2023/12/05 14:06:59;;;;;;;55.20;24.00;;;;;;;;;;5069400;28;20037;-70
2023/12/05 14:09:25;;;;;;;53.63;24.13;;;;;;;;;;5071022;28;20052;-71
2023/12/05 14:11:51;;;;;;;56.85;24.38;;;;;;;;;;5070398;28;20499;-71
2023/12/05 14:14:17;;;;;;;50.33;23.10;;;;;;;;;;5071395;28;20072;-71
2023/12/05 14:16:43;;;;;;;54.25;23.45;;;;;;;;;;5065411;28;20120;-71